createdAt,value
2022-12-03T00:02:18.550Z,1.00
2022-12-03T00:07:50.148Z,1.00
2022-12-03T00:13:21.462Z,1.00
2022-12-03T00:18:53.443Z,1.00
2022-12-03T00:24:25.240Z,1.00
2022-12-03T00:29:56.964Z,1.00
2022-12-03T00:35:29.873Z,1.00
2022-12-03T00:41:01.625Z,1.00
2022-12-03T00:46:33.906Z,1.00
2022-12-03T00:52:06.108Z,1.00
2022-12-03T00:57:38.295Z,1.00
2022-12-03T01:03:10.370Z,1.00
2022-12-03T01:08:42.080Z,1.00
2022-12-03T01:14:14.079Z,1.00
2022-12-03T01:19:48.440Z,1.00
2022-12-03T01:25:17.581Z,1.00
2022-12-03T01:30:49.373Z,1.00
2022-12-03T01:36:21.455Z,1.00
2022-12-03T01:41:53.707Z,1.00
2022-12-03T01:47:25.908Z,1.00
2022-12-03T01:52:57.751Z,0.00
2022-12-03T01:58:29.321Z,1.00
2022-12-03T02:00:53.504Z,1.00
2022-12-03T02:06:25.515Z,1.00
2022-12-03T02:11:57.179Z,1.00
2022-12-03T02:17:29.058Z,1.00
2022-12-03T02:23:00.730Z,1.00
2022-12-03T02:28:32.534Z,0.00
2022-12-03T02:34:05.208Z,1.00
2022-12-03T02:39:37.488Z,1.00
2022-12-03T02:45:09.667Z,0.00
2022-12-03T02:50:41.272Z,1.00
2022-12-03T03:01:42.810Z,1.00
2022-12-03T03:07:14.724Z,0.00
2022-12-03T03:12:46.435Z,1.00
2022-12-03T03:18:18.306Z,1.00
2022-12-03T03:23:49.920Z,1.00
2022-12-03T03:29:21.743Z,0.00
2022-12-03T03:34:53.731Z,0.00
2022-12-03T03:40:25.480Z,1.00
2022-12-03T03:45:57.469Z,1.00
2022-12-03T03:51:29.035Z,1.00
2022-12-03T03:57:00.812Z,1.00
2022-12-03T04:02:32.608Z,1.00
2022-12-03T04:08:04.637Z,0.00
2022-12-03T04:13:36.454Z,1.00
2022-12-03T04:19:09.626Z,1.00
2022-12-03T04:24:41.244Z,1.00
2022-12-03T04:30:12.957Z,1.00
2022-12-03T04:35:44.835Z,0.00
2022-12-03T04:41:16.241Z,1.00
2022-12-03T04:46:47.918Z,1.00
2022-12-03T04:52:19.958Z,1.00
2022-12-03T04:57:51.994Z,1.00
2022-12-03T05:03:23.817Z,0.00
2022-12-03T05:05:47.270Z,1.00
2022-12-03T05:11:19.039Z,1.00
2022-12-03T05:22:20.685Z,1.00
2022-12-03T05:27:52.321Z,1.00
2022-12-03T05:33:24.196Z,1.00
2022-12-03T05:38:55.898Z,1.00
2022-12-03T05:44:27.828Z,1.00
2022-12-03T05:50:00.953Z,1.00
2022-12-03T05:55:32.754Z,1.00
2022-12-03T06:01:04.694Z,1.00
2022-12-03T06:06:36.376Z,1.00
2022-12-03T06:12:08.185Z,2.00
2022-12-03T06:17:39.839Z,3.00
2022-12-03T06:23:11.771Z,7.00
2022-12-03T06:28:43.937Z,19.00
2022-12-03T06:34:15.553Z,40.00
2022-12-03T06:39:47.605Z,65.00
2022-12-03T06:45:19.399Z,125.00
2022-12-03T06:50:51.286Z,168.00
2022-12-03T06:56:23.021Z,265.00
2022-12-03T07:01:54.928Z,468.00
2022-12-03T07:07:26.950Z,638.00
2022-12-03T07:12:59.348Z,655.00
2022-12-03T07:18:31.223Z,755.00
2022-12-03T07:24:03.026Z,1219.00
2022-12-03T07:29:35.058Z,1540.00
2022-12-03T07:35:06.847Z,1921.00
2022-12-03T07:40:39.181Z,2094.00
2022-12-03T07:46:11.421Z,2516.00
2022-12-03T07:51:43.413Z,3092.00
2022-12-03T07:57:15.469Z,3243.00
2022-12-03T08:02:47.097Z,3896.00
2022-12-03T08:08:18.978Z,3773.00
2022-12-03T08:13:50.853Z,4793.00
2022-12-03T08:19:22.730Z,4736.00
2022-12-03T08:24:54.426Z,5432.00
2022-12-03T08:30:26.554Z,4413.00
2022-12-03T08:32:49.712Z,4766.00
2022-12-03T08:38:21.260Z,4858.00
2022-12-03T08:43:53.417Z,4447.00
2022-12-03T08:49:25.416Z,6686.00
2022-12-03T08:54:57.408Z,6569.00
2022-12-03T09:00:29.150Z,5775.00
2022-12-03T09:06:00.897Z,5563.00
2022-12-03T09:11:32.947Z,5875.00
2022-12-03T09:17:04.618Z,6653.00
2022-12-03T09:22:36.301Z,6880.00
2022-12-03T09:28:08.195Z,8168.00
2022-12-03T09:33:40.248Z,7622.00
2022-12-03T09:39:12.182Z,7056.00
2022-12-03T09:44:44.320Z,6687.00
2022-12-03T09:50:16.503Z,7589.00
2022-12-03T09:55:48.810Z,8872.00
2022-12-03T10:01:21.082Z,8641.00
2022-12-03T10:06:52.980Z,8633.00
2022-12-03T10:12:24.916Z,9077.00
2022-12-03T10:17:57.082Z,9803.00
2022-12-03T10:23:29.305Z,9429.00
2022-12-03T10:29:01.379Z,7891.00
2022-12-03T10:34:33.472Z,6897.00
2022-12-03T10:40:05.484Z,9609.00
2022-12-03T10:45:37.257Z,8907.00
2022-12-03T10:51:08.922Z,9035.00
2022-12-03T10:56:40.668Z,9075.00
2022-12-03T11:02:12.243Z,9140.00
2022-12-03T11:07:44.374Z,8979.00
2022-12-03T11:13:16.217Z,9657.00
2022-12-03T11:18:47.973Z,9405.00
2022-12-03T11:24:19.860Z,9446.00
2022-12-03T11:29:51.479Z,8535.00
2022-12-03T11:35:23.609Z,7548.00
2022-12-03T11:40:55.248Z,7015.00
2022-12-03T11:46:33.334Z,6610.00
2022-12-03T11:52:05.276Z,6083.00
2022-12-03T11:57:37.225Z,6437.00
2022-12-03T12:03:09.188Z,6045.00
2022-12-03T12:08:41.031Z,4040.00
2022-12-03T12:14:12.877Z,4520.00
2022-12-03T12:19:49.719Z,5863.00
2022-12-03T12:25:17.107Z,6184.00
2022-12-03T12:30:48.943Z,5821.00
2022-12-03T12:36:22.489Z,5867.00
2022-12-03T12:41:53.861Z,5427.00
2022-12-03T12:47:26.152Z,5173.00
2022-12-03T12:52:58.172Z,5804.00
2022-12-03T12:58:30.209Z,4588.00
2022-12-03T13:04:02.385Z,4823.00
2022-12-03T13:09:34.141Z,4206.00
2022-12-03T13:17:27.434Z,4543.00
2022-12-03T13:22:58.953Z,4339.00
2022-12-03T13:28:30.937Z,4564.00
2022-12-03T13:34:03.071Z,4078.00
2022-12-03T13:39:34.740Z,3357.00
2022-12-03T13:45:06.637Z,3667.00
2022-12-03T13:50:38.447Z,3084.00
2022-12-03T13:56:10.120Z,2229.00
2022-12-03T14:01:42.110Z,2234.00
2022-12-03T14:07:14.052Z,2042.00
2022-12-03T14:12:45.706Z,2290.00
2022-12-03T14:18:17.568Z,2073.00
2022-12-03T14:23:49.430Z,1564.00
2022-12-03T14:29:21.557Z,1192.00
2022-12-03T14:34:53.323Z,1057.00
2022-12-03T14:40:25.186Z,998.00
2022-12-03T14:45:57.216Z,816.00
2022-12-03T14:51:29.296Z,715.00
2022-12-03T14:57:01.047Z,558.00
2022-12-03T15:02:33.672Z,435.00
2022-12-03T15:08:05.542Z,315.00
2022-12-03T15:13:37.405Z,220.00
2022-12-03T15:19:09.594Z,145.00
2022-12-03T15:24:41.435Z,88.00
2022-12-03T15:30:13.390Z,56.00
2022-12-03T15:35:45.244Z,27.00
2022-12-03T15:41:17.284Z,13.00
2022-12-03T15:46:48.834Z,6.00
2022-12-03T15:52:20.994Z,3.00
2022-12-03T15:57:52.791Z,2.00
2022-12-03T16:08:54.510Z,1.00
2022-12-03T16:14:26.714Z,2.00
2022-12-03T16:19:59.134Z,2.00
2022-12-03T16:25:31.076Z,2.00
2022-12-03T16:31:03.327Z,3.00
2022-12-03T16:36:35.620Z,4.00
2022-12-03T16:42:14.081Z,4.00
2022-12-03T16:47:39.813Z,3.00
2022-12-03T16:53:11.907Z,3.00
2022-12-03T16:58:43.718Z,4.00
2022-12-03T17:04:16.073Z,3.00
2022-12-03T17:09:54.041Z,3.00
2022-12-03T17:17:47.693Z,3.00
2022-12-03T17:23:19.518Z,4.00
2022-12-03T17:28:51.503Z,3.00
2022-12-03T17:34:23.226Z,3.00
2022-12-03T17:39:55.102Z,4.00
2022-12-03T17:45:26.943Z,3.00
2022-12-03T17:50:58.720Z,4.00
2022-12-03T17:56:30.370Z,4.00
2022-12-03T18:02:02.156Z,3.00
2022-12-03T18:07:34.403Z,4.00
2022-12-03T18:13:06.432Z,4.00
2022-12-03T18:18:38.221Z,3.00
2022-12-03T18:24:10.287Z,3.00
2022-12-03T18:29:42.173Z,4.00
2022-12-03T18:35:13.763Z,4.00
2022-12-03T18:40:45.495Z,4.00
2022-12-03T18:51:46.551Z,3.00
2022-12-03T18:57:18.542Z,4.00
2022-12-03T19:03:05.838Z,4.00
2022-12-03T19:08:22.807Z,4.00
2022-12-03T19:13:54.589Z,3.00
2022-12-03T19:19:26.053Z,3.00
2022-12-03T19:35:57.227Z,3.00
2022-12-03T19:41:28.565Z,3.00
2022-12-03T19:47:00.863Z,3.00
2022-12-03T19:52:33.038Z,3.00
2022-12-03T19:58:04.718Z,3.00
2022-12-03T20:03:36.322Z,3.00
2022-12-03T20:09:08.837Z,4.00
2022-12-03T20:17:02.561Z,3.00
2022-12-03T20:22:34.108Z,3.00
2022-12-03T20:28:05.501Z,3.00
2022-12-03T20:33:37.437Z,3.00
2022-12-03T20:39:09.347Z,3.00
2022-12-03T20:44:41.465Z,15.00
2022-12-03T20:50:13.333Z,15.00
2022-12-03T20:55:45.020Z,15.00
2022-12-03T21:01:17.036Z,3.00
2022-12-03T21:06:49.532Z,4.00
2022-12-03T21:12:21.401Z,3.00
2022-12-03T21:17:53.282Z,3.00
2022-12-03T21:23:25.090Z,3.00
2022-12-03T21:28:56.784Z,3.00
2022-12-03T21:34:35.526Z,3.00
2022-12-03T21:40:00.673Z,3.00
2022-12-03T21:51:01.959Z,3.00
2022-12-03T21:56:33.488Z,3.00
2022-12-03T22:02:05.530Z,3.00
2022-12-03T22:13:06.938Z,3.00
2022-12-03T22:18:38.728Z,3.00
2022-12-03T22:24:10.873Z,3.00
2022-12-03T22:29:42.574Z,3.00
2022-12-03T22:35:14.537Z,3.00
2022-12-03T22:40:46.551Z,3.00
2022-12-03T22:46:18.113Z,3.00
2022-12-03T22:51:49.817Z,2.00
2022-12-03T22:57:21.951Z,3.00
2022-12-03T23:02:55.548Z,3.00
2022-12-03T23:08:27.433Z,3.00
2022-12-03T23:13:59.315Z,3.00
2022-12-03T23:19:31.448Z,3.00
2022-12-03T23:25:03.700Z,3.00
2022-12-03T23:30:35.730Z,3.00
2022-12-03T23:36:07.516Z,3.00
2022-12-03T23:41:39.296Z,3.00
2022-12-03T23:47:11.300Z,1.00
2022-12-03T23:52:45.466Z,1.00
2022-12-03T23:58:18.204Z,1.00
